createdAt,value
2017-12-06T00:00:41.845Z,1021.60
2017-12-06T00:01:42.276Z,1021.55
2017-12-06T00:02:42.693Z,1021.62
2017-12-06T00:03:43.116Z,1021.60
2017-12-06T00:04:43.538Z,1021.58
2017-12-06T00:05:43.961Z,1021.60
2017-12-06T00:06:44.389Z,1021.58
2017-12-06T00:07:44.811Z,1021.61
2017-12-06T00:08:45.231Z,1021.57
2017-12-06T00:09:45.659Z,1021.58
2017-12-06T00:10:46.080Z,1021.61
2017-12-06T00:11:46.504Z,1021.63
2017-12-06T00:12:46.929Z,1021.64
2017-12-06T00:13:47.354Z,1021.65
2017-12-06T00:14:47.774Z,1021.58
2017-12-06T00:15:48.199Z,1021.59
2017-12-06T00:16:48.622Z,1021.65
2017-12-06T00:17:49.050Z,1021.62
2017-12-06T00:18:49.469Z,1021.63
2017-12-06T00:19:49.893Z,1021.66
2017-12-06T00:20:50.318Z,1021.67
2017-12-06T00:21:50.746Z,1021.70
2017-12-06T00:22:51.163Z,1021.77
2017-12-06T00:23:51.588Z,1021.70
2017-12-06T00:24:52.019Z,1021.72
2017-12-06T00:25:52.437Z,1021.76
2017-12-06T00:26:52.861Z,1021.72
2017-12-06T00:27:53.284Z,1021.78
2017-12-06T00:28:53.724Z,1021.73
2017-12-06T00:29:54.134Z,1021.78
2017-12-06T00:30:54.555Z,1021.72
2017-12-06T00:31:54.980Z,1021.72
2017-12-06T00:32:55.405Z,1021.78
2017-12-06T00:33:55.832Z,1021.79
2017-12-06T00:34:56.255Z,1021.83
2017-12-06T00:35:56.680Z,1021.69
2017-12-06T00:36:57.098Z,1021.74
2017-12-06T00:37:57.522Z,1021.75
2017-12-06T00:38:57.952Z,1021.75
2017-12-06T00:39:58.372Z,1021.70
2017-12-06T00:40:58.794Z,1021.80
2017-12-06T00:41:59.219Z,1021.78
2017-12-06T00:42:59.651Z,1021.80
2017-12-06T00:44:00.071Z,1021.71
2017-12-06T00:45:00.495Z,1021.82
2017-12-06T00:46:00.915Z,1021.70
2017-12-06T00:47:01.338Z,1021.73
2017-12-06T00:48:01.767Z,1021.67
2017-12-06T00:49:02.187Z,1021.69
2017-12-06T00:50:02.610Z,1021.75
2017-12-06T00:51:03.037Z,1021.71
2017-12-06T00:52:03.458Z,1021.71
2017-12-06T00:53:03.882Z,1021.66
2017-12-06T00:54:04.304Z,1021.68
2017-12-06T00:55:04.730Z,1021.64
2017-12-06T00:56:05.153Z,1021.64
2017-12-06T00:57:05.580Z,1021.56
2017-12-06T00:58:06.002Z,1021.58
2017-12-06T00:59:06.425Z,1021.65
2017-12-06T01:00:06.850Z,1021.60
2017-12-06T01:01:07.274Z,1021.60
2017-12-06T01:02:07.696Z,1021.59
2017-12-06T01:03:08.120Z,1021.58
2017-12-06T01:04:08.546Z,1021.70
2017-12-06T01:05:08.999Z,1021.65
2017-12-06T01:06:09.394Z,1021.67
2017-12-06T01:07:09.826Z,1021.66
2017-12-06T01:08:10.247Z,1021.64
2017-12-06T01:09:10.666Z,1021.75
2017-12-06T01:10:11.090Z,1021.74
2017-12-06T01:11:11.513Z,1021.75
2017-12-06T01:12:11.936Z,1021.75
2017-12-06T01:13:12.359Z,1021.81
2017-12-06T01:14:12.782Z,1021.83
2017-12-06T01:15:13.214Z,1021.86
2017-12-06T01:16:13.636Z,1021.74
2017-12-06T01:17:14.054Z,1021.83
2017-12-06T01:18:14.479Z,1021.80
2017-12-06T01:19:14.903Z,1021.80
2017-12-06T01:20:15.330Z,1021.90
2017-12-06T01:21:15.751Z,1021.89
2017-12-06T01:22:16.177Z,1021.92
2017-12-06T01:23:16.603Z,1021.90
2017-12-06T01:24:17.024Z,1021.93
2017-12-06T01:25:17.449Z,1021.92
2017-12-06T01:26:17.870Z,1021.88
2017-12-06T01:27:18.294Z,1021.90
2017-12-06T01:28:18.733Z,1021.83
2017-12-06T01:29:19.143Z,1021.85
2017-12-06T01:30:19.569Z,1021.98
2017-12-06T01:31:19.990Z,1021.92
2017-12-06T01:32:20.416Z,1021.83
2017-12-06T01:33:20.844Z,1021.89
2017-12-06T01:34:21.272Z,1021.82
2017-12-06T01:35:21.694Z,1021.90
2017-12-06T01:36:22.119Z,1021.73
2017-12-06T01:37:22.541Z,1021.83
2017-12-06T01:38:22.958Z,1021.89
2017-12-06T01:39:23.386Z,1021.79
2017-12-06T01:40:23.806Z,1021.86
2017-12-06T01:41:24.235Z,1021.78
2017-12-06T01:42:24.655Z,1021.78
2017-12-06T01:43:25.080Z,1021.85
2017-12-06T01:44:25.505Z,1021.76
2017-12-06T01:45:25.927Z,1021.88
2017-12-06T01:46:26.351Z,1021.86
2017-12-06T01:47:26.775Z,1021.78
2017-12-06T01:48:27.201Z,1021.85
2017-12-06T01:49:27.623Z,1021.82
2017-12-06T01:50:28.046Z,1021.75
2017-12-06T01:51:28.474Z,1021.74
2017-12-06T01:52:28.896Z,1021.69
2017-12-06T01:53:29.319Z,1021.79
2017-12-06T01:54:29.754Z,1021.70
2017-12-06T01:55:30.166Z,1021.83
2017-12-06T01:56:30.591Z,1021.85
2017-12-06T01:57:31.013Z,1021.86
2017-12-06T01:58:31.440Z,1021.73
2017-12-06T01:59:31.862Z,1021.79
2017-12-06T02:00:32.287Z,1021.81
2017-12-06T02:01:32.711Z,1021.83
2017-12-06T02:02:33.135Z,1021.79
2017-12-06T02:03:33.562Z,1021.84
2017-12-06T02:04:33.981Z,1021.80
2017-12-06T02:05:34.405Z,1021.82
2017-12-06T02:06:34.832Z,1021.80
2017-12-06T02:07:35.255Z,1021.82
2017-12-06T02:08:35.680Z,1021.81
2017-12-06T02:09:36.104Z,1021.78
2017-12-06T02:10:36.527Z,1021.80
2017-12-06T02:11:36.954Z,1021.77
2017-12-06T02:12:37.374Z,1021.82
2017-12-06T02:13:37.801Z,1021.74
2017-12-06T02:14:38.221Z,1021.73
2017-12-06T02:15:38.657Z,1021.79
2017-12-06T02:16:39.074Z,1021.73
2017-12-06T02:17:39.498Z,1021.79
2017-12-06T02:18:39.919Z,1021.76
2017-12-06T02:19:40.345Z,1021.77
2017-12-06T02:20:40.768Z,1021.71
2017-12-06T02:21:41.194Z,1021.66
2017-12-06T02:22:41.616Z,1021.72
2017-12-06T02:23:42.042Z,1021.69
2017-12-06T02:24:42.468Z,1021.65
2017-12-06T02:25:42.890Z,1021.62
2017-12-06T02:26:43.312Z,1021.59
2017-12-06T02:27:43.738Z,1021.65
2017-12-06T02:28:44.161Z,1021.65
2017-12-06T02:29:44.589Z,1021.64
2017-12-06T02:30:45.009Z,1021.53
2017-12-06T02:31:45.434Z,1021.55
2017-12-06T02:32:45.863Z,1021.56
2017-12-06T02:33:46.281Z,1021.48
2017-12-06T02:34:46.706Z,1021.55
2017-12-06T02:35:47.130Z,1021.55
2017-12-06T02:36:47.554Z,1021.61
2017-12-06T02:37:47.982Z,1021.57
2017-12-06T02:38:48.401Z,1021.52
2017-12-06T02:39:48.822Z,1021.55
2017-12-06T02:40:49.251Z,1021.57
2017-12-06T02:41:49.677Z,1021.60
2017-12-06T02:42:50.097Z,1021.56
2017-12-06T02:43:50.521Z,1021.53
2017-12-06T02:44:50.947Z,1021.59
2017-12-06T02:45:51.370Z,1021.61
2017-12-06T02:46:51.799Z,1021.60
2017-12-06T02:47:52.220Z,1021.63
2017-12-06T02:48:52.640Z,1021.56
2017-12-06T02:49:53.067Z,1021.56
2017-12-06T02:50:53.494Z,1021.54
2017-12-06T02:51:53.920Z,1021.55
2017-12-06T02:52:54.339Z,1021.54
2017-12-06T02:53:54.762Z,1021.59
2017-12-06T02:54:55.188Z,1021.45
2017-12-06T02:55:55.619Z,1021.52
2017-12-06T02:56:56.032Z,1021.48
2017-12-06T02:57:56.453Z,1021.57
2017-12-06T02:58:56.879Z,1021.44
2017-12-06T02:59:57.301Z,1021.40
2017-12-06T03:00:57.732Z,1021.35
2017-12-06T03:01:58.150Z,1021.43
2017-12-06T03:02:58.576Z,1021.35
2017-12-06T03:03:58.998Z,1021.47
2017-12-06T03:04:59.424Z,1021.40
2017-12-06T03:05:59.847Z,1021.36
2017-12-06T03:07:00.269Z,1021.46
2017-12-06T03:08:00.695Z,1021.39
2017-12-06T03:09:01.118Z,1021.42
2017-12-06T03:10:01.542Z,1021.41
2017-12-06T03:11:02.028Z,1021.41
2017-12-06T03:12:02.394Z,1021.38
2017-12-06T03:13:02.815Z,1021.37
2017-12-06T03:14:03.239Z,1021.38
2017-12-06T03:15:03.660Z,1021.36
2017-12-06T03:16:04.085Z,1021.35
2017-12-06T03:17:04.509Z,1021.32
2017-12-06T03:18:04.937Z,1021.33
2017-12-06T03:19:05.357Z,1021.29
2017-12-06T03:20:05.782Z,1021.31
2017-12-06T03:21:06.211Z,1021.33
2017-12-06T03:22:06.630Z,1021.25
2017-12-06T03:23:07.055Z,1021.32
2017-12-06T03:24:07.479Z,1021.33
2017-12-06T03:25:07.901Z,1021.33
2017-12-06T03:26:08.334Z,1021.30
2017-12-06T03:27:08.750Z,1021.33
2017-12-06T03:28:09.176Z,1021.30
2017-12-06T03:29:09.601Z,1021.30
2017-12-06T03:30:10.023Z,1021.25
2017-12-06T03:31:10.452Z,1021.23
2017-12-06T03:32:10.870Z,1021.23
2017-12-06T03:33:11.295Z,1021.23
2017-12-06T03:34:11.717Z,1021.15
2017-12-06T03:35:12.146Z,1021.18
2017-12-06T03:36:12.566Z,1021.18
2017-12-06T03:37:12.996Z,1021.19
2017-12-06T03:38:13.416Z,1021.21
2017-12-06T03:39:13.842Z,1021.13
2017-12-06T03:40:14.263Z,1021.23
2017-12-06T03:41:14.686Z,1021.16
2017-12-06T03:42:15.110Z,1021.18
2017-12-06T03:43:15.533Z,1021.18
2017-12-06T03:44:15.957Z,1021.15
2017-12-06T03:45:16.384Z,1021.18
2017-12-06T03:46:16.811Z,1021.16
2017-12-06T03:47:17.231Z,1021.15
2017-12-06T03:48:17.656Z,1021.11
2017-12-06T03:50:18.498Z,1021.12
2017-12-06T03:51:18.926Z,1021.12
2017-12-06T03:52:19.348Z,1021.13
2017-12-06T03:53:19.774Z,1021.09
2017-12-06T03:54:20.200Z,1021.19
2017-12-06T03:55:20.619Z,1021.18
2017-12-06T03:56:42.204Z,1021.07
2017-12-06T03:57:21.476Z,1021.09
2017-12-06T03:58:21.893Z,1021.05
2017-12-06T03:59:22.318Z,1021.03
2017-12-06T04:00:22.739Z,1021.08
2017-12-06T04:01:23.163Z,1021.03
2017-12-06T04:02:44.747Z,1021.09
2017-12-06T04:03:24.012Z,1021.12
2017-12-06T04:04:24.436Z,1021.07
2017-12-06T04:05:24.913Z,1021.14
2017-12-06T04:06:25.282Z,1021.10
2017-12-06T04:07:25.708Z,1021.08
2017-12-06T04:08:47.290Z,1021.03
2017-12-06T04:09:26.555Z,1021.04
2017-12-06T04:10:26.982Z,1021.12
2017-12-06T04:11:27.407Z,1021.11
2017-12-06T04:12:27.827Z,1021.14
2017-12-06T04:13:28.252Z,1021.08
2017-12-06T04:14:49.834Z,1021.14
2017-12-06T04:15:29.098Z,1021.03
2017-12-06T04:16:29.528Z,1020.93
2017-12-06T04:17:29.951Z,1021.00
2017-12-06T04:18:30.381Z,1020.97
2017-12-06T04:19:30.799Z,1020.98
2017-12-06T04:20:52.378Z,1020.91
2017-12-06T04:21:31.653Z,1020.94
2017-12-06T04:22:32.066Z,1020.90
2017-12-06T04:23:32.493Z,1020.96
2017-12-06T04:24:32.929Z,1020.99
2017-12-06T04:25:33.340Z,1020.95
2017-12-06T04:26:54.921Z,1020.98
2017-12-06T04:27:34.188Z,1020.92
2017-12-06T04:28:34.610Z,1020.91
2017-12-06T04:29:35.038Z,1020.94
2017-12-06T04:30:35.459Z,1020.86
2017-12-06T04:31:35.882Z,1020.94
2017-12-06T04:32:57.466Z,1020.92
2017-12-06T04:33:36.730Z,1020.85
2017-12-06T04:34:37.156Z,1021.06
2017-12-06T04:35:37.577Z,1020.94
2017-12-06T04:36:38.059Z,1020.88
2017-12-06T04:37:38.426Z,1020.87
2017-12-06T04:39:00.009Z,1020.97
2017-12-06T04:39:39.274Z,1020.87
2017-12-06T04:40:39.698Z,1020.94
2017-12-06T04:41:40.123Z,1020.90
2017-12-06T04:42:40.555Z,1020.98
2017-12-06T04:43:41.721Z,1020.85
2017-12-06T04:45:02.605Z,1020.99
2017-12-06T04:45:41.818Z,1021.01
2017-12-06T04:46:42.247Z,1020.99
2017-12-06T04:47:42.670Z,1020.99
2017-12-06T04:48:43.086Z,1020.93
2017-12-06T04:49:43.514Z,1021.00
2017-12-06T04:51:05.093Z,1020.97
2017-12-06T04:51:44.362Z,1020.88
2017-12-06T04:52:44.783Z,1020.90
2017-12-06T04:53:45.208Z,1020.89
2017-12-06T04:54:45.633Z,1020.93
2017-12-06T04:55:46.058Z,1020.84
2017-12-06T04:57:07.641Z,1020.88
2017-12-06T04:57:46.906Z,1020.80
2017-12-06T04:58:47.327Z,1020.88
2017-12-06T04:59:47.751Z,1020.77
2017-12-06T05:00:48.186Z,1020.82
2017-12-06T05:01:48.601Z,1020.85
2017-12-06T05:03:10.178Z,1020.86
2017-12-06T05:03:49.461Z,1020.86
2017-12-06T05:04:49.879Z,1020.90
2017-12-06T05:05:50.296Z,1020.87
2017-12-06T05:06:50.722Z,1020.93
2017-12-06T05:07:51.142Z,1020.90
2017-12-06T05:09:12.726Z,1020.83
2017-12-06T05:09:51.996Z,1020.91
2017-12-06T05:10:52.413Z,1020.93
2017-12-06T05:11:52.839Z,1020.89
2017-12-06T05:12:53.262Z,1020.88
2017-12-06T05:13:53.686Z,1020.86
2017-12-06T05:15:15.273Z,1020.85
2017-12-06T05:15:54.536Z,1020.80
2017-12-06T05:16:54.961Z,1020.86
2017-12-06T05:17:55.388Z,1020.80
2017-12-06T05:18:55.808Z,1020.81
2017-12-06T05:19:56.231Z,1020.82
2017-12-06T05:21:17.813Z,1020.82
2017-12-06T05:21:57.078Z,1020.80
2017-12-06T05:22:57.509Z,1020.79
2017-12-06T05:23:57.925Z,1020.82
2017-12-06T05:24:58.353Z,1020.82
2017-12-06T05:25:58.778Z,1020.86
2017-12-06T05:27:20.356Z,1020.86
2017-12-06T05:27:59.626Z,1020.75
2017-12-06T05:29:00.052Z,1020.77
2017-12-06T05:30:00.480Z,1020.73
2017-12-06T05:31:00.895Z,1020.79
2017-12-06T05:32:01.317Z,1020.77
2017-12-06T05:33:22.902Z,1020.82
2017-12-06T05:34:02.331Z,1020.74
2017-12-06T05:35:02.588Z,1020.81
2017-12-06T05:36:03.025Z,1020.82
2017-12-06T05:37:03.444Z,1020.78
2017-12-06T05:38:03.864Z,1020.77
2017-12-06T05:39:25.449Z,1020.78
2017-12-06T05:40:04.712Z,1020.85
2017-12-06T05:41:05.139Z,1020.78
2017-12-06T05:42:05.560Z,1020.78
2017-12-06T05:43:05.984Z,1020.79
2017-12-06T05:44:06.408Z,1020.79
2017-12-06T05:45:27.995Z,1020.75
2017-12-06T05:46:07.287Z,1020.76
2017-12-06T05:47:07.688Z,1020.75
2017-12-06T05:48:08.104Z,1020.77
2017-12-06T05:49:08.544Z,1020.74
2017-12-06T05:50:08.967Z,1020.77
2017-12-06T05:51:30.538Z,1020.76
2017-12-06T05:52:09.802Z,1020.76
2017-12-06T05:53:10.224Z,1020.80
2017-12-06T05:54:10.651Z,1020.80
2017-12-06T05:55:11.072Z,1020.76
2017-12-06T05:56:11.495Z,1020.77
2017-12-06T05:57:33.080Z,1020.79
2017-12-06T05:58:12.345Z,1020.67
2017-12-06T05:59:12.768Z,1020.76
2017-12-06T06:00:13.192Z,1020.75
2017-12-06T06:01:13.617Z,1020.82
2017-12-06T06:02:14.049Z,1020.85
2017-12-06T06:03:35.625Z,1020.76
2017-12-06T06:04:14.891Z,1020.76
2017-12-06T06:05:15.319Z,1020.72
2017-12-06T06:06:15.738Z,1020.75
2017-12-06T06:07:16.202Z,1020.77
2017-12-06T06:08:16.586Z,1020.70
2017-12-06T06:09:38.166Z,1020.66
2017-12-06T06:10:17.449Z,1020.74
2017-12-06T06:11:17.858Z,1020.72
2017-12-06T06:12:18.285Z,1020.64
2017-12-06T06:13:18.706Z,1020.69
2017-12-06T06:14:19.130Z,1020.91
2017-12-06T06:15:40.709Z,1020.75
2017-12-06T06:16:19.978Z,1020.73
2017-12-06T06:17:20.404Z,1020.66
2017-12-06T06:18:20.828Z,1020.83
2017-12-06T06:19:21.254Z,1020.73
2017-12-06T06:20:21.679Z,1020.75
2017-12-06T06:21:43.266Z,1020.77
2017-12-06T06:22:22.520Z,1020.76
2017-12-06T06:23:22.949Z,1020.86
2017-12-06T06:24:23.369Z,1020.80
2017-12-06T06:25:23.792Z,1020.80
2017-12-06T06:26:24.219Z,1020.81
2017-12-06T06:27:45.797Z,1020.78
2017-12-06T06:28:25.074Z,1020.73
2017-12-06T06:29:25.491Z,1020.75
2017-12-06T06:30:25.922Z,1020.78
2017-12-06T06:31:26.336Z,1020.76
2017-12-06T06:32:26.761Z,1020.80
2017-12-06T06:33:48.346Z,1020.85
2017-12-06T06:34:27.610Z,1020.86
2017-12-06T06:35:28.032Z,1020.87
2017-12-06T06:36:28.456Z,1020.87
2017-12-06T06:37:28.886Z,1020.94
2017-12-06T06:38:29.306Z,1020.85
2017-12-06T06:39:50.890Z,1020.87
2017-12-06T06:40:30.152Z,1020.85
2017-12-06T06:41:30.580Z,1020.92
2017-12-06T06:42:31.012Z,1020.89
2017-12-06T06:43:31.427Z,1020.90
2017-12-06T06:44:31.850Z,1020.92
2017-12-06T06:45:53.434Z,1020.98
2017-12-06T06:46:32.706Z,1020.98
2017-12-06T06:47:33.122Z,1021.00
2017-12-06T06:48:33.545Z,1020.95
2017-12-06T06:49:33.971Z,1020.92
2017-12-06T06:50:34.397Z,1020.93
2017-12-06T06:51:55.973Z,1020.92
2017-12-06T06:52:35.247Z,1020.99
2017-12-06T06:53:35.664Z,1020.90
2017-12-06T06:54:36.091Z,1021.01
2017-12-06T06:55:36.514Z,1020.98
2017-12-06T06:56:36.941Z,1020.96
2017-12-06T06:57:58.517Z,1020.92
2017-12-06T06:58:37.786Z,1020.96
2017-12-06T06:59:38.212Z,1020.95
2017-12-06T07:00:38.633Z,1020.92
2017-12-06T07:01:39.058Z,1020.86
2017-12-06T07:02:39.484Z,1020.88
2017-12-06T07:04:01.063Z,1020.84
2017-12-06T07:04:40.329Z,1020.81
2017-12-06T07:05:40.755Z,1020.80
2017-12-06T07:06:41.178Z,1020.82
2017-12-06T07:07:41.602Z,1020.71
2017-12-06T07:08:42.046Z,1020.79
2017-12-06T07:10:03.607Z,1020.77
2017-12-06T07:10:42.874Z,1020.68
2017-12-06T07:11:43.297Z,1020.70
2017-12-06T07:12:43.722Z,1020.78
2017-12-06T07:13:44.148Z,1020.77
2017-12-06T07:14:44.567Z,1020.82
2017-12-06T07:16:06.152Z,1020.84
2017-12-06T07:16:45.424Z,1020.74
2017-12-06T07:17:45.842Z,1020.87
2017-12-06T07:18:46.266Z,1020.81
2017-12-06T07:19:46.688Z,1020.91
2017-12-06T07:20:47.114Z,1020.90
2017-12-06T07:22:08.710Z,1020.82
2017-12-06T07:22:47.962Z,1020.81
2017-12-06T07:23:48.387Z,1020.83
2017-12-06T07:24:48.811Z,1020.79
2017-12-06T07:25:49.236Z,1020.83
2017-12-06T07:26:49.660Z,1020.80
2017-12-06T07:28:11.248Z,1020.84
2017-12-06T07:28:50.508Z,1020.73
2017-12-06T07:29:50.930Z,1020.63
2017-12-06T07:30:51.357Z,1020.80
2017-12-06T07:31:51.779Z,1020.68
2017-12-06T07:32:52.207Z,1020.80
2017-12-06T07:34:13.804Z,1020.75
2017-12-06T07:34:53.060Z,1020.73
2017-12-06T07:35:53.475Z,1020.71
2017-12-06T07:36:53.899Z,1020.71
2017-12-06T07:37:54.327Z,1020.84
2017-12-06T07:38:54.751Z,1020.80
2017-12-06T07:40:16.341Z,1020.73
2017-12-06T07:40:55.593Z,1020.77
2017-12-06T07:41:56.015Z,1020.80
2017-12-06T07:42:56.444Z,1020.79
2017-12-06T07:43:56.867Z,1020.82
2017-12-06T07:44:57.288Z,1020.78
2017-12-06T07:46:18.868Z,1020.76
2017-12-06T07:46:58.137Z,1020.76
2017-12-06T07:47:58.558Z,1020.76
2017-12-06T07:48:58.986Z,1020.94
2017-12-06T07:49:59.409Z,1020.85
2017-12-06T07:50:59.829Z,1020.86
2017-12-06T07:52:21.416Z,1020.80
2017-12-06T07:53:00.678Z,1020.79
2017-12-06T07:54:01.104Z,1020.75
2017-12-06T07:55:01.524Z,1020.78
2017-12-06T07:56:01.952Z,1020.84
2017-12-06T07:57:02.377Z,1020.77
2017-12-06T07:58:23.955Z,1020.70
2017-12-06T07:59:03.237Z,1020.73
2017-12-06T08:00:03.642Z,1020.61
2017-12-06T08:01:04.136Z,1020.72
2017-12-06T08:02:04.553Z,1020.68
2017-12-06T08:03:04.918Z,1020.71
2017-12-06T08:04:26.497Z,1020.77
2017-12-06T08:05:05.766Z,1020.74
2017-12-06T08:06:06.189Z,1020.67
2017-12-06T08:07:06.617Z,1020.73
2017-12-06T08:08:07.037Z,1020.78
2017-12-06T08:09:07.463Z,1020.69
2017-12-06T08:10:29.049Z,1020.77
2017-12-06T08:11:08.309Z,1020.82
2017-12-06T08:12:08.732Z,1020.83
2017-12-06T08:13:09.154Z,1020.80
2017-12-06T08:14:09.579Z,1020.78
2017-12-06T08:15:10.003Z,1020.86
2017-12-06T08:16:31.585Z,1020.84
2017-12-06T08:17:10.850Z,1020.84
2017-12-06T08:18:11.273Z,1020.79
2017-12-06T08:19:11.702Z,1020.76
2017-12-06T08:20:12.123Z,1020.76
2017-12-06T08:21:12.547Z,1020.82
2017-12-06T08:22:34.126Z,1020.82
2017-12-06T08:23:13.394Z,1020.77
2017-12-06T08:24:13.815Z,1020.78
2017-12-06T08:25:14.242Z,1020.86
2017-12-06T08:26:14.673Z,1020.80
2017-12-06T08:27:15.089Z,1020.89
2017-12-06T08:28:36.673Z,1020.88
2017-12-06T08:29:15.941Z,1020.90
2017-12-06T08:30:16.360Z,1020.84
2017-12-06T08:31:16.785Z,1020.79
2017-12-06T08:32:17.210Z,1020.93
2017-12-06T08:33:17.633Z,1020.88
2017-12-06T08:34:39.216Z,1020.80
2017-12-06T08:35:18.480Z,1020.87
2017-12-06T08:36:18.908Z,1021.00
2017-12-06T08:37:19.329Z,1020.86
2017-12-06T08:38:19.814Z,1020.87
2017-12-06T08:39:20.177Z,1020.88
2017-12-06T08:40:41.756Z,1020.85
2017-12-06T08:41:21.022Z,1020.83
2017-12-06T08:42:21.449Z,1020.85
2017-12-06T08:43:21.871Z,1020.76
2017-12-06T08:44:22.296Z,1020.76
2017-12-06T08:45:22.718Z,1020.85
2017-12-06T08:46:44.300Z,1020.80
2017-12-06T08:47:23.568Z,1020.79
2017-12-06T08:48:23.988Z,1020.81
2017-12-06T08:49:24.413Z,1020.79
2017-12-06T08:50:24.837Z,1020.82
2017-12-06T08:51:25.340Z,1020.79
2017-12-06T08:52:46.915Z,1020.79
2017-12-06T08:53:26.112Z,1020.76
2017-12-06T08:54:26.532Z,1020.82
2017-12-06T08:55:26.957Z,1020.74
2017-12-06T08:56:27.384Z,1020.84
2017-12-06T08:57:27.808Z,1020.92
2017-12-06T08:58:49.387Z,1020.83
2017-12-06T08:59:28.653Z,1020.82
2017-12-06T09:00:29.078Z,1020.79
2017-12-06T09:01:29.518Z,1020.82
2017-12-06T09:02:29.926Z,1020.83
2017-12-06T09:03:30.349Z,1020.90
2017-12-06T09:04:51.929Z,1020.95
2017-12-06T09:05:31.198Z,1020.80
2017-12-06T09:06:31.626Z,1020.87
2017-12-06T09:07:32.046Z,1020.82
2017-12-06T09:08:32.469Z,1020.88
2017-12-06T09:09:32.894Z,1020.90
2017-12-06T09:10:54.478Z,1020.92
2017-12-06T09:11:33.752Z,1020.84
2017-12-06T09:12:34.162Z,1020.84
2017-12-06T09:13:34.584Z,1020.91
2017-12-06T09:14:35.016Z,1020.85
2017-12-06T09:15:35.432Z,1020.87
2017-12-06T09:16:57.015Z,1020.77
2017-12-06T09:17:36.284Z,1020.94
2017-12-06T09:18:36.708Z,1020.86
2017-12-06T09:19:37.127Z,1020.87
2017-12-06T09:20:37.554Z,1020.82
2017-12-06T09:21:37.976Z,1020.80
2017-12-06T09:22:59.557Z,1020.84
2017-12-06T09:23:38.824Z,1020.92
2017-12-06T09:24:39.249Z,1020.84
2017-12-06T09:25:39.672Z,1020.83
2017-12-06T09:26:40.093Z,1020.79
2017-12-06T09:27:40.519Z,1020.87
2017-12-06T09:29:02.102Z,1020.72
2017-12-06T09:29:41.368Z,1020.86
2017-12-06T09:30:41.788Z,1020.74
2017-12-06T09:31:42.217Z,1020.82
2017-12-06T09:32:42.649Z,1020.82
2017-12-06T09:33:43.077Z,1020.75
2017-12-06T09:35:04.645Z,1020.79
2017-12-06T09:35:43.914Z,1020.89
2017-12-06T09:36:44.331Z,1020.84
2017-12-06T09:37:44.756Z,1020.72
2017-12-06T09:38:45.183Z,1020.82
2017-12-06T09:39:45.604Z,1020.77
2017-12-06T09:41:07.184Z,1020.86
2017-12-06T09:41:46.451Z,1020.79
2017-12-06T09:42:46.891Z,1020.69
2017-12-06T09:43:47.299Z,1020.77
2017-12-06T09:44:47.721Z,1020.77
2017-12-06T09:45:48.157Z,1020.80
2017-12-06T09:47:09.731Z,1020.76
2017-12-06T09:47:48.993Z,1020.74
2017-12-06T09:48:49.458Z,1020.70
2017-12-06T09:49:49.840Z,1020.71
2017-12-06T09:50:50.270Z,1020.78
2017-12-06T09:51:50.710Z,1020.80
2017-12-06T09:53:12.269Z,1020.72
2017-12-06T09:53:51.535Z,1020.68
2017-12-06T09:54:51.960Z,1020.76
2017-12-06T09:55:52.388Z,1020.78
2017-12-06T09:56:52.809Z,1020.71
2017-12-06T09:57:53.233Z,1020.74
2017-12-06T09:59:14.818Z,1020.73
2017-12-06T09:59:54.077Z,1020.78
2017-12-06T10:00:54.501Z,1020.76
2017-12-06T10:01:54.925Z,1020.74
2017-12-06T10:02:55.349Z,1020.80
2017-12-06T10:03:55.780Z,1020.77
2017-12-06T10:05:17.355Z,1020.77
2017-12-06T10:05:56.624Z,1020.60
2017-12-06T10:06:57.044Z,1020.75
2017-12-06T10:07:57.468Z,1020.67
2017-12-06T10:08:57.892Z,1020.71
2017-12-06T10:09:58.318Z,1020.64
2017-12-06T10:11:19.896Z,1020.69
2017-12-06T10:11:59.164Z,1020.71
2017-12-06T10:12:59.588Z,1020.65
2017-12-06T10:14:00.025Z,1020.71
2017-12-06T10:15:00.434Z,1020.65
2017-12-06T10:16:00.864Z,1020.62
2017-12-06T10:17:22.458Z,1020.65
2017-12-06T10:18:01.708Z,1020.74
2017-12-06T10:19:02.129Z,1020.62
2017-12-06T10:20:02.555Z,1020.65
2017-12-06T10:21:02.975Z,1020.63
2017-12-06T10:22:03.400Z,1020.64
2017-12-06T10:23:24.986Z,1020.54
2017-12-06T10:24:04.246Z,1020.60
2017-12-06T10:25:04.672Z,1020.57
2017-12-06T10:26:05.096Z,1020.41
2017-12-06T10:27:05.523Z,1020.51
2017-12-06T10:28:05.948Z,1020.61
2017-12-06T10:29:27.528Z,1020.53
2017-12-06T10:30:06.838Z,1020.66
2017-12-06T10:31:07.226Z,1020.70
2017-12-06T10:32:07.642Z,1020.54
2017-12-06T10:33:08.065Z,1020.62
2017-12-06T10:34:08.487Z,1020.54
2017-12-06T10:35:30.074Z,1020.53
2017-12-06T10:36:09.338Z,1020.53
2017-12-06T10:37:09.763Z,1020.56
2017-12-06T10:38:10.185Z,1020.51
2017-12-06T10:39:10.609Z,1020.52
2017-12-06T10:40:11.035Z,1020.55
2017-12-06T10:41:32.622Z,1020.53
2017-12-06T10:42:11.895Z,1020.55
2017-12-06T10:43:18.820Z,1020.58
2017-12-06T10:44:13.015Z,1020.55
2017-12-06T10:51:56.144Z,1020.50
2017-12-06T10:52:26.356Z,1020.39
2017-12-06T10:59:06.146Z,1020.29
2017-12-06T11:00:01.452Z,1020.33
2017-12-06T11:01:56.214Z,1020.21
2017-12-06T11:02:56.631Z,1020.31
2017-12-06T11:03:57.067Z,1020.34
2017-12-06T11:04:57.465Z,1020.25
2017-12-06T11:05:57.881Z,1020.25
2017-12-06T11:06:58.317Z,1020.32
2017-12-06T11:07:58.728Z,1020.24
2017-12-06T11:08:59.170Z,1020.26
2017-12-06T11:09:59.591Z,1020.32
2017-12-06T11:11:00.007Z,1020.19
2017-12-06T11:12:00.450Z,1020.25
2017-12-06T11:13:00.855Z,1020.23
2017-12-06T11:14:01.273Z,1020.27
2017-12-06T11:15:01.698Z,1020.30
2017-12-06T11:16:02.119Z,1020.33
2017-12-06T11:17:05.265Z,1020.22
2017-12-06T11:18:02.985Z,1020.19
2017-12-06T11:19:03.398Z,1020.38
2017-12-06T11:20:03.822Z,1020.29
2017-12-06T11:21:04.242Z,1020.39
2017-12-06T11:22:04.686Z,1020.21
2017-12-06T11:23:05.092Z,1020.20
2017-12-06T11:24:05.517Z,1020.32
2017-12-06T11:25:05.948Z,1020.20
2017-12-06T11:26:06.361Z,1020.22
2017-12-06T11:27:06.793Z,1020.28
2017-12-06T11:28:07.215Z,1020.29
2017-12-06T11:29:07.636Z,1020.28
2017-12-06T11:30:08.056Z,1020.21
2017-12-06T11:31:08.498Z,1020.27
2017-12-06T11:32:08.917Z,1020.25
2017-12-06T11:33:09.333Z,1020.18
2017-12-06T11:34:09.755Z,1020.28
2017-12-06T11:35:10.178Z,1020.37
2017-12-06T11:36:10.601Z,1020.28
2017-12-06T11:37:11.043Z,1020.22
2017-12-06T11:38:11.457Z,1020.28
2017-12-06T11:39:11.882Z,1020.28
2017-12-06T11:40:12.301Z,1020.28
2017-12-06T11:41:12.727Z,1020.17
2017-12-06T11:42:13.147Z,1020.24
2017-12-06T11:43:13.599Z,1020.20
2017-12-06T11:44:13.997Z,1020.21
2017-12-06T11:45:14.480Z,1020.27
2017-12-06T11:46:14.855Z,1020.23
2017-12-06T11:47:15.280Z,1020.16
2017-12-06T11:48:15.696Z,1020.24
2017-12-06T11:49:16.122Z,1020.17
2017-12-06T11:50:16.546Z,1020.18
2017-12-06T11:51:17.125Z,1020.18
2017-12-06T11:52:17.394Z,1020.19
2017-12-06T11:53:17.819Z,1020.10
2017-12-06T11:54:18.255Z,1020.14
2017-12-06T11:55:18.671Z,1020.25
2017-12-06T11:56:19.092Z,1020.18
2017-12-06T11:57:19.524Z,1020.24
2017-12-06T11:58:19.943Z,1020.25
2017-12-06T11:59:20.365Z,1020.19
2017-12-06T12:00:20.793Z,1020.24
2017-12-06T12:01:21.213Z,1020.21
2017-12-06T12:02:21.636Z,1020.05
2017-12-06T12:03:22.083Z,1020.14
2017-12-06T12:04:22.486Z,1020.24
2017-12-06T12:05:22.911Z,1020.10
2017-12-06T12:06:23.335Z,1020.25
2017-12-06T12:07:23.765Z,1020.25
2017-12-06T12:08:24.221Z,1020.15
2017-12-06T12:09:24.611Z,1020.19
2017-12-06T12:10:25.036Z,1020.20
2017-12-06T12:11:25.468Z,1020.21
2017-12-06T12:12:25.880Z,1020.13
2017-12-06T12:13:26.307Z,1020.22
2017-12-06T12:14:26.732Z,1020.21
2017-12-06T12:15:27.155Z,1020.19
2017-12-06T12:16:27.585Z,1020.20
2017-12-06T12:17:28.009Z,1020.22
2017-12-06T12:18:28.426Z,1020.13
2017-12-06T12:19:28.851Z,1020.13
2017-12-06T12:20:29.293Z,1020.13
2017-12-06T12:21:29.709Z,1020.13
2017-12-06T12:22:30.123Z,1020.25
2017-12-06T12:23:30.548Z,1020.19
2017-12-06T12:24:30.975Z,1020.07